KOCH/OCH METAR and TAF weather

Enter ICAO airport designator
Station Type Date Time Source
KOCH METAR 2022/01/26 06:56 UTC NOAA

KOCH 260656Z AUTO 04007KT 010V070 10SM CLR 05/M05 A3028 RMK AO2 SLP258 T00501050


Station Type Date Time Source
KOCH Decoded METAR 2022/01/26 06:56 UTC NOAA

Nacogdoches, A L Mangham Jr. Regional Airport, TX, United States (KOCH) 31-35N 094-43W
Jan 26, 2022 - 01:56 AM EST / 2022.01.26 0656 UTC
Wind: from the NE (040 degrees) at 8 MPH (7 KT) (direction variable):0
Visibility: 10 mile(s):0
Sky conditions: clear
Temperature: 41.0 F (5.0 C)
Dew Point: 23.0 F (-5.0 C)
Relative Humidity: 48%
Pressure (altimeter): 30.28 in. Hg (1025 hPa)
ob: KOCH 260656Z AUTO 04007KT 010V070 10SM CLR 05/M05 A3028 RMK AO2 SLP258 T00501050
cycle: 7

Station Type Date Time Source
KOCH TAF UTC NOAA

Error!

Example: see airport list